Time;durP1;ratioP1;P1;durP2;ratioP2;P2;SDS_P1;SDS_P2;PMS_P1;PMS_P2;Temp;Humidity;BMP_temperature;BMP_pressure;BME280_temperature;BME280_humidity;BME280_pressure;Samples;Min_cycle;Max_cycle;Signal;HPM_P1;HPM_P2
2021/10/27 00:01:53;;;;;;;27.80;9.07;;;;;;;16.84;71.16;101124.81;4829360;28;120831;-70
2021/10/27 00:04:18;;;;;;;46.55;10.70;;;;;;;16.86;71.06;101116.78;4858494;28;121762;-71
2021/10/27 00:06:47;;;;;;;35.85;10.00;;;;;;;16.83;71.00;101110.22;4866604;28;120492;-70
2021/10/27 00:09:14;;;;;;;36.00;10.20;;;;;;;16.86;71.02;101128.63;4861380;28;120169;-71
2021/10/27 00:11:40;;;;;;;36.25;9.82;;;;;;;16.91;71.23;101121.63;4855061;28;120034;-70
2021/10/27 00:14:06;;;;;;;39.38;9.25;;;;;;;16.94;71.29;101117.13;4841927;28;121442;-71
2021/10/27 00:16:32;;;;;;;42.15;8.75;;;;;;;16.97;71.15;101128.00;4858329;28;120318;-71
2021/10/27 00:19:00;;;;;;;40.90;10.20;;;;;;;16.98;71.06;101123.97;4863884;28;120351;-70
2021/10/27 00:21:27;;;;;;;37.47;8.52;;;;;;;17.01;71.25;101116.72;4865846;28;120264;-70
2021/10/27 00:23:52;;;;;;;30.60;9.00;;;;;;;17.01;71.60;101134.09;4858036;28;119913;-71
2021/10/27 00:26:18;;;;;;;41.30;9.20;;;;;;;17.04;71.34;101132.41;4858354;28;120587;-70
2021/10/27 00:28:44;;;;;;;36.45;9.18;;;;;;;17.03;71.21;101125.31;4859032;28;120014;-70
2021/10/27 00:31:10;;;;;;;27.65;8.15;;;;;;;17.06;71.07;101129.91;4862262;28;120009;-72
2021/10/27 00:33:37;;;;;;;25.50;7.38;;;;;;;17.10;71.15;101141.53;4848786;28;120077;-70
2021/10/27 00:36:05;;;;;;;36.90;9.73;;;;;;;17.14;71.05;101144.84;4863882;28;119988;-70
2021/10/27 00:38:31;;;;;;;39.58;10.07;;;;;;;17.16;70.71;101147.91;4847455;28;120416;-70
2021/10/27 00:40:57;;;;;;;38.95;8.85;;;;;;;17.16;71.11;101143.13;4856700;28;119859;-70
2021/10/27 00:43:22;;;;;;;32.83;9.98;;;;;;;17.19;70.80;101147.69;4864754;28;120611;-71
2021/10/27 00:45:48;;;;;;;32.60;10.65;;;;;;;17.18;71.06;101140.63;4870362;28;119974;-71
2021/10/27 00:48:14;;;;;;;33.72;10.85;;;;;;;17.19;70.97;101146.94;4873725;28;119935;-70
2021/10/27 00:50:39;;;;;;;27.05;9.50;;;;;;;17.24;70.87;101134.38;4857757;28;121091;-70
2021/10/27 00:53:05;;;;;;;33.25;11.57;;;;;;;17.25;70.76;101141.44;4858772;28;121890;-70
2021/10/27 00:55:31;;;;;;;28.63;11.05;;;;;;;17.23;70.77;101132.84;4861797;28;120196;-70
2021/10/27 00:57:58;;;;;;;36.97;11.93;;;;;;;17.28;70.94;101144.03;4859293;28;119486;-70
2021/10/27 01:00:24;;;;;;;34.10;12.25;;;;;;;17.27;70.91;101142.50;4860089;28;121271;-70
2021/10/27 01:02:51;;;;;;;39.03;12.00;;;;;;;17.26;70.77;101140.97;4860248;28;119846;-70
2021/10/27 01:05:17;;;;;;;36.55;12.07;;;;;;;17.28;70.72;101135.72;4865088;28;119801;-70
2021/10/27 01:07:43;;;;;;;32.90;10.95;;;;;;;17.30;71.17;101149.09;4859036;28;119803;-70
2021/10/27 01:10:09;;;;;;;34.05;12.13;;;;;;;17.32;70.93;101152.91;4864594;28;119731;-70
2021/10/27 01:12:35;;;;;;;30.38;10.68;;;;;;;17.33;70.93;101154.44;4857958;28;120435;-71
2021/10/27 01:15:02;;;;;;;39.65;13.38;;;;;;;17.37;70.82;101148.66;4854226;28;120473;-71
2021/10/27 01:17:27;;;;;;;32.22;11.88;;;;;;;17.35;70.92;101153.94;4856666;28;119617;-71
2021/10/27 01:20:00;;;;;;;31.90;11.95;;;;;;;17.32;70.96;101147.34;4855378;28;119637;-71
2021/10/27 01:22:28;;;;;;;35.42;13.38;;;;;;;17.29;71.01;101142.03;4852631;28;120334;-71
2021/10/27 01:24:55;;;;;;;28.02;10.43;;;;;;;17.28;71.37;101141.28;4872240;28;119694;-71
2021/10/27 01:27:22;;;;;;;46.15;13.50;;;;;;;17.30;71.71;101152.63;4871537;28;120183;-70
2021/10/27 01:29:48;;;;;;;42.45;14.35;;;;;;;17.30;71.61;101158.19;4861756;28;119685;-70
2021/10/27 01:32:30;;;;;;;41.60;11.45;;;;;;;17.32;71.46;101146.59;4866098;28;119551;-71
2021/10/27 01:34:57;;;;;;;37.10;13.57;;;;;;;17.30;71.47;101144.31;4866809;28;119711;-70
2021/10/27 01:37:25;;;;;;;38.70;13.30;;;;;;;17.34;71.52;101155.19;4858463;28;120516;-71
2021/10/27 01:39:52;;;;;;;36.47;11.70;;;;;;;17.35;71.57;101145.63;4854647;28;125076;-70
2021/10/27 01:42:18;;;;;;;38.30;11.75;;;;;;;17.37;71.58;101157.00;4859899;28;120341;-70
2021/10/27 01:44:44;;;;;;;45.67;12.00;;;;;;;17.37;71.53;101143.13;4865267;28;120382;-70
2021/10/27 01:47:10;;;;;;;37.28;11.80;;;;;;;17.36;71.55;101139.59;4867666;28;119956;-71
2021/10/27 01:49:37;;;;;;;22.25;9.65;;;;;;;17.37;71.72;101146.66;4841548;28;120172;-71
2021/10/27 01:52:04;;;;;;;31.42;10.95;;;;;;;17.41;71.29;101138.13;4862332;28;119646;-71
2021/10/27 01:54:30;;;;;;;39.00;11.20;;;;;;;17.44;71.47;101135.13;4844479;28;120143;-71
2021/10/27 01:56:57;;;;;;;33.85;11.23;;;;;;;17.42;71.12;101134.88;4854986;28;119645;-70
2021/10/27 01:59:23;;;;;;;38.20;11.20;;;;;;;17.41;71.36;101135.34;4858151;28;120436;-70
2021/10/27 02:01:50;;;;;;;35.88;11.43;;;;;;;17.44;71.32;101142.69;4856054;28;120148;-70
2021/10/27 02:04:16;;;;;;;44.53;11.60;;;;;;;17.45;71.30;101133.13;4853229;28;119239;-71
2021/10/27 02:06:42;;;;;;;45.67;12.60;;;;;;;17.46;71.26;101135.41;4868467;28;119993;-70
2021/10/27 02:09:07;;;;;;;37.03;12.15;;;;;;;17.50;71.11;101135.19;4871118;28;119853;-70
2021/10/27 02:11:33;;;;;;;39.97;11.75;;;;;;;17.47;71.22;101136.16;4866830;28;119869;-70
2021/10/27 02:13:59;;;;;;;37.35;11.13;;;;;;;17.53;71.14;101130.72;4838767;28;120204;-70
2021/10/27 02:16:25;;;;;;;44.10;11.77;;;;;;;17.53;71.31;101130.72;4857611;28;119613;-71
2021/10/27 02:18:51;;;;;;;44.70;12.82;;;;;;;17.52;71.21;101126.41;4861828;28;121462;-71
2021/10/27 02:21:18;;;;;;;30.85;9.93;;;;;;;17.54;71.15;101130.22;4848638;28;119961;-70
2021/10/27 02:23:44;;;;;;;38.45;11.35;;;;;;;17.56;71.16;101124.94;4862771;28;119877;-70
2021/10/27 02:26:10;;;;;;;31.40;10.38;;;;;;;17.58;71.08;101116.13;4857546;28;120504;-70
2021/10/27 02:28:36;;;;;;;33.03;10.50;;;;;;;17.56;71.14;101115.88;4856039;28;120424;-70
2021/10/27 02:31:02;;;;;;;34.97;10.88;;;;;;;17.56;71.00;101115.88;4859486;28;120114;-70
2021/10/27 02:33:28;;;;;;;45.47;11.90;;;;;;;17.58;70.94;101122.44;4841134;28;120796;-71
2021/10/27 02:35:58;;;;;;;41.40;11.63;;;;;;;17.59;71.16;101114.88;4828213;28;121396;-70
2021/10/27 02:38:23;;;;;;;40.67;10.95;;;;;;;17.49;71.08;101097.63;4847012;28;122660;-70
2021/10/27 02:40:49;;;;;;;34.63;10.23;;;;;;;17.60;71.05;101125.47;4865098;28;119858;-71
2021/10/27 02:43:16;;;;;;;24.95;9.15;;;;;;;17.61;70.88;101120.69;4861184;28;119997;-70
2021/10/27 02:45:50;;;;;;;39.40;10.63;;;;;;;17.62;71.12;101111.13;4851638;28;123636;-72
2021/10/27 02:48:16;;;;;;;43.65;10.27;;;;;;;17.60;71.15;101117.16;4864234;28;120217;-70
2021/10/27 02:50:44;;;;;;;31.98;9.95;;;;;;;17.63;70.93;101107.88;4859149;28;119864;-71
2021/10/27 02:53:10;;;;;;;38.65;10.88;;;;;;;17.65;70.93;101130.31;4855101;28;120354;-70
2021/10/27 02:55:35;;;;;;;40.42;10.52;;;;;;;17.63;70.86;101109.88;4865785;28;121445;-71
2021/10/27 02:58:01;;;;;;;34.47;10.10;;;;;;;17.67;70.83;101116.75;4864074;28;119951;-71
2021/10/27 03:00:27;;;;;;;35.80;9.30;;;;;;;17.70;70.97;101115.78;4840767;28;119716;-70
2021/10/27 03:02:56;;;;;;;29.15;9.30;;;;;;;17.70;70.89;101113.00;4851681;28;119570;-71
2021/10/27 03:05:22;;;;;;;34.63;9.25;;;;;;;17.69;70.91;101108.69;4857548;28;119825;-71
2021/10/27 03:07:49;;;;;;;35.33;10.38;;;;;;;17.69;70.89;101117.03;4861568;28;119848;-70
2021/10/27 03:10:17;;;;;;;35.95;10.68;;;;;;;17.71;70.82;101105.44;4858296;28;120978;-71
2021/10/27 03:12:44;;;;;;;43.28;11.13;;;;;;;17.69;70.78;101113.50;4860182;28;119923;-70
2021/10/27 03:15:12;;;;;;;42.67;11.57;;;;;;;17.72;70.79;101102.16;4862431;28;119711;-70
2021/10/27 03:17:41;;;;;;;40.60;10.90;;;;;;;17.73;70.82;101116.81;4860669;28;121299;-70
2021/10/27 03:20:10;;;;;;;39.92;10.93;;;;;;;17.73;70.96;101117.56;4861435;28;120816;-70
2021/10/27 03:22:35;;;;;;;38.55;10.45;;;;;;;17.72;70.77;101110.50;4857506;28;121040;-72
2021/10/27 03:25:01;;;;;;;36.65;9.82;;;;;;;17.68;70.76;101109.19;4855006;28;120047;-71
2021/10/27 03:27:29;;;;;;;39.80;10.13;;;;;;;17.74;71.05;101105.25;4854378;28;120789;-70
2021/10/27 03:29:55;;;;;;;38.88;10.75;;;;;;;17.75;70.79;101108.78;4857269;28;119541;-70
2021/10/27 03:32:21;;;;;;;42.25;10.23;;;;;;;17.77;70.37;101115.34;4856606;28;119580;-71
2021/10/27 03:34:48;;;;;;;39.47;9.80;;;;;;;17.74;70.70;101104.44;4859958;28;120138;-71
2021/10/27 03:37:14;;;;;;;29.25;9.50;;;;;;;17.75;70.71;101126.19;4859677;28;120066;-70
2021/10/27 03:39:40;;;;;;;31.45;9.20;;;;;;;17.77;70.72;101120.16;4856154;28;119608;-70
2021/10/27 03:42:06;;;;;;;39.38;9.60;;;;;;;17.64;70.53;101103.06;4857758;28;120126;-70
2021/10/27 03:44:31;;;;;;;32.20;9.95;;;;;;;17.75;70.75;101112.31;4835725;28;121846;-70
2021/10/27 03:46:57;;;;;;;41.65;9.38;;;;;;;17.75;70.67;101112.31;4854442;28;120022;-70
2021/10/27 03:49:23;;;;;;;35.70;9.65;;;;;;;17.76;70.73;101113.06;4824141;28;120085;-70
2021/10/27 03:51:49;;;;;;;43.28;9.85;;;;;;;17.78;70.73;101125.19;4870738;28;120018;-71
2021/10/27 03:54:15;;;;;;;39.85;8.65;;;;;;;17.79;70.74;101117.63;4833638;28;120209;-70
2021/10/27 03:56:41;;;;;;;38.22;11.25;;;;;;;17.76;70.84;101108.28;4851113;28;120115;-70
2021/10/27 03:59:07;;;;;;;42.92;10.80;;;;;;;17.77;70.69;101120.91;4857691;28;120164;-71
2021/10/27 04:01:33;;;;;;;43.15;9.30;;;;;;;17.74;70.79;101110.78;4852124;28;119948;-70
2021/10/27 04:03:58;;;;;;;33.40;8.73;;;;;;;17.77;70.75;101129.22;4861191;28;120554;-70
2021/10/27 04:06:25;;;;;;;43.90;9.40;;;;;;;17.79;70.64;101126.72;4869884;28;119624;-70
2021/10/27 04:08:50;;;;;;;41.55;10.55;;;;;;;17.79;70.54;101112.09;4842955;28;119965;-70
2021/10/27 04:11:16;;;;;;;46.00;10.13;;;;;;;17.77;70.66;101115.34;4857935;28;120339;-71
2021/10/27 04:13:42;;;;;;;44.88;9.85;;;;;;;17.81;70.65;101131.03;4850671;28;122443;-71
2021/10/27 04:16:08;;;;;;;42.45;10.48;;;;;;;17.83;70.63;101122.97;4825689;28;119921;-70
2021/10/27 04:18:34;;;;;;;39.72;9.13;;;;;;;17.82;70.60;101111.09;4865458;28;119927;-70
2021/10/27 04:21:00;;;;;;;39.45;8.60;;;;;;;17.81;70.81;101125.47;4860824;28;120632;-70
2021/10/27 04:23:25;;;;;;;39.40;8.65;;;;;;;17.79;70.89;101118.41;4853303;28;122934;-70
2021/10/27 04:25:51;;;;;;;39.80;9.35;;;;;;;17.80;70.78;101116.38;4855175;28;119958;-70
2021/10/27 04:28:17;;;;;;;36.15;8.65;;;;;;;17.83;70.60;101122.97;4856606;28;120017;-71
2021/10/27 04:30:48;;;;;;;42.88;9.63;;;;;;;17.82;70.65;101124.22;4857850;28;119794;-70
2021/10/27 04:33:22;;;;;;;38.97;9.48;;;;;;;17.83;70.78;101126.50;4847433;28;119712;-71
2021/10/27 04:35:49;;;;;;;43.00;9.05;;;;;;;17.81;70.72;101119.94;4849426;28;119700;-70
2021/10/27 04:38:16;;;;;;;37.67;8.07;;;;;;;17.81;70.72;101133.78;4851381;28;121936;-70
2021/10/27 04:40:43;;;;;;;29.52;7.55;;;;;;;17.82;70.72;101129.78;4864909;28;121821;-70
2021/10/27 04:43:10;;;;;;;33.45;7.55;;;;;;;17.84;70.76;101135.59;4848643;28;122192;-71
2021/10/27 04:45:36;;;;;;;32.95;7.63;;;;;;;17.87;70.60;101129.06;4857145;28;119786;-71
2021/10/27 04:48:02;;;;;;;40.22;8.25;;;;;;;17.89;70.59;101132.09;4861724;28;120389;-71
2021/10/27 04:50:28;;;;;;;48.50;8.43;;;;;;;17.89;70.43;101140.44;4845667;28;120191;-71
2021/10/27 04:52:54;;;;;;;43.78;8.13;;;;;;;17.89;70.31;101137.66;4835786;28;120285;-71
2021/10/27 04:55:20;;;;;;;42.92;8.48;;;;;;;17.85;70.56;101134.34;4868437;28;119674;-71
2021/10/27 04:57:47;;;;;;;42.45;8.43;;;;;;;17.87;70.83;101154.03;4864180;28;119984;-70
2021/10/27 05:00:13;;;;;;;43.75;9.57;;;;;;;17.82;70.59;101141.63;4864283;28;119908;-70
2021/10/27 05:02:39;;;;;;;41.20;8.57;;;;;;;17.83;70.63;101145.16;4864236;28;120931;-70
2021/10/27 05:05:06;;;;;;;41.85;8.35;;;;;;;17.78;70.60;101127.97;4858494;28;120029;-70
2021/10/27 05:07:32;;;;;;;35.20;7.70;;;;;;;17.76;70.63;101118.63;4843138;28;119866;-70
2021/10/27 05:10:02;;;;;;;38.25;8.50;;;;;;;17.84;70.64;101125.25;4850587;28;119886;-70
2021/10/27 05:12:28;;;;;;;41.15;8.35;;;;;;;17.86;70.68;101119.22;4847810;28;120322;-71
2021/10/27 05:14:54;;;;;;;35.08;7.63;;;;;;;17.83;70.70;101109.09;4865927;28;122642;-70
2021/10/27 05:17:20;;;;;;;37.65;7.88;;;;;;;17.86;70.48;101130.31;4859236;28;119943;-70
2021/10/27 05:19:47;;;;;;;41.97;9.00;;;;;;;17.84;70.60;101111.38;4858344;28;120000;-71
2021/10/27 05:22:14;;;;;;;46.35;8.73;;;;;;;17.86;70.57;101116.44;4864273;28;120565;-70
2021/10/27 05:24:41;;;;;;;45.15;8.48;;;;;;;17.83;70.58;101125.75;4867433;28;120219;-71
2021/10/27 05:27:08;;;;;;;46.88;9.02;;;;;;;17.85;70.70;101120.47;4843468;28;119545;-70
2021/10/27 05:29:34;;;;;;;40.25;9.13;;;;;;;17.85;70.58;101114.91;4865233;28;120017;-70
2021/10/27 05:32:00;;;;;;;35.90;7.63;;;;;;;17.88;70.45;101119.47;4859906;28;120630;-70
2021/10/27 05:34:26;;;;;;;40.30;7.78;;;;;;;17.89;70.54;101129.31;4867254;28;122892;-70
2021/10/27 05:36:51;;;;;;;35.85;7.85;;;;;;;17.89;70.49;101118.97;4864655;28;119869;-70
2021/10/27 05:39:17;;;;;;;43.50;8.43;;;;;;;17.89;70.41;101132.88;4849736;28;120314;-70
2021/10/27 05:41:45;;;;;;;43.67;8.60;;;;;;;17.86;70.32;101116.44;4858791;28;120602;-71
2021/10/27 05:44:11;;;;;;;39.38;7.82;;;;;;;17.89;70.58;101132.09;4862261;28;120077;-71
2021/10/27 05:46:39;;;;;;;42.60;7.68;;;;;;;17.89;70.55;101138.41;4855193;28;120031;-70
2021/10/27 05:49:24;;;;;;;43.70;8.25;;;;;;;17.90;70.51;101123.28;4859061;28;120015;-70
2021/10/27 05:51:55;;;;;;;40.13;8.52;;;;;;;17.88;70.50;101119.47;4868929;28;120370;-70
2021/10/27 05:57:05;;;;;;;42.95;6.90;;;;;;;17.92;70.41;101134.66;4866593;28;120120;-70
2021/10/27 05:59:32;;;;;;;39.20;7.97;;;;;;;17.88;70.19;101127.81;4861707;28;119983;-70
2021/10/27 06:01:58;;;;;;;41.22;8.13;;;;;;;17.92;70.38;101136.66;4848005;28;120367;-70
2021/10/27 06:04:24;;;;;;;33.83;6.63;;;;;;;17.90;70.27;101139.19;4842411;28;119598;-71
2021/10/27 06:06:50;;;;;;;42.50;7.38;;;;;;;17.91;70.20;101146.25;4868496;28;120166;-71
2021/10/27 06:09:16;;;;;;;38.78;7.20;;;;;;;17.87;70.34;101134.59;4845315;28;122135;-71
2021/10/27 06:11:43;;;;;;;42.65;7.40;;;;;;;17.92;70.22;101134.66;4870552;28;121173;-71
2021/10/27 06:14:12;;;;;;;42.45;7.57;;;;;;;17.93;70.02;101143.75;4855239;28;121265;-71
2021/10/27 06:16:38;;;;;;;44.05;8.15;;;;;;;17.91;70.20;101129.59;4858553;28;120392;-71
2021/10/27 06:19:04;;;;;;;35.83;7.25;;;;;;;17.86;70.29;101136.63;4856077;28;119964;-71
2021/10/27 06:21:31;;;;;;;41.58;7.32;;;;;;;17.88;70.13;101147.22;4856864;28;120304;-71
2021/10/27 06:23:58;;;;;;;29.45;6.43;;;;;;;17.87;70.26;101140.91;4841092;28;120036;-71
2021/10/27 06:26:24;;;;;;;31.70;7.30;;;;;;;17.90;70.52;101139.19;4863429;28;120060;-71
2021/10/27 06:29:00;;;;;;;35.30;7.63;;;;;;;17.89;70.17;101154.31;4851232;28;121238;-71
2021/10/27 06:31:49;;;;;;;37.78;7.63;;;;;;;17.90;70.30;101145.47;4828780;28;120245;-71
2021/10/27 06:34:38;;;;;;;30.73;6.93;;;;;;;17.89;70.34;101165.41;4863362;28;119529;-70
2021/10/27 06:47:57;;;;;;;32.85;6.47;;;;;;;17.92;70.18;101172.75;4859149;28;119916;-70
2021/10/27 06:50:22;;;;;;;36.20;6.68;;;;;;;17.94;70.01;101192.44;4868569;28;120076;-71
2021/10/27 06:52:48;;;;;;;30.23;6.47;;;;;;;17.91;70.04;101169.22;4849057;28;120409;-71
2021/10/27 06:55:15;;;;;;;34.35;7.32;;;;;;;17.94;70.15;101181.34;4855466;28;120185;-70
2021/10/27 06:57:46;;;;;;;36.00;7.00;;;;;;;17.94;70.11;101178.56;4855924;28;119943;-70
2021/10/27 07:00:20;;;;;;;37.67;6.68;;;;;;;17.95;70.03;101182.88;4862691;28;120002;-70
2021/10/27 07:15:49;;;;;;;34.80;7.15;;;;;;;17.96;70.12;101215.69;4837807;28;121136;-71
2021/10/27 07:18:14;;;;;;;33.60;7.25;;;;;;;17.99;69.93;101211.94;4860978;28;119956;-71
2021/10/27 07:20:41;;;;;;;30.13;7.10;;;;;;;17.99;69.79;101211.94;4849350;28;120215;-70
2021/10/27 07:23:09;;;;;;;35.00;7.40;;;;;;;18.01;69.60;101208.69;4855813;28;121164;-71
2021/10/27 07:25:39;;;;;;;33.35;6.82;;;;;;;18.02;69.69;101222.06;4856990;28;119819;-71
2021/10/27 07:28:05;;;;;;;23.45;5.78;;;;;;;17.99;69.90;101209.19;4861280;28;120416;-71
2021/10/27 07:30:31;;;;;;;34.20;6.40;;;;;;;18.01;69.76;101217.78;4856621;28;120008;-70
2021/10/27 07:32:59;;;;;;;28.90;5.65;;;;;;;18.02;69.57;101218.53;4822161;28;120276;-71
2021/10/27 07:35:31;;;;;;;32.97;6.63;;;;;;;18.00;69.54;101227.34;4846300;28;120431;-71
2021/10/27 07:40:46;;;;;;;34.65;6.22;;;;;;;18.06;69.58;101216.31;4874263;28;119571;-71
2021/10/27 07:43:17;;;;;;;28.90;5.50;;;;;;;18.09;69.59;101231.97;4859404;28;119893;-71
2021/10/27 07:45:46;;;;;;;32.37;5.20;;;;;;;18.14;69.27;101242.38;4851514;28;120836;-71
2021/10/27 07:48:14;;;;;;;22.10;5.00;;;;;;;18.13;69.56;101237.31;4866504;28;120439;-71
2021/10/27 07:50:41;;;;;;;34.17;5.88;;;;;;;18.16;69.42;101234.31;4852793;28;120064;-71
2021/10/27 07:53:10;;;;;;;27.73;5.68;;;;;;;18.18;69.35;101242.16;4856403;28;119768;-70
2021/10/27 07:55:41;;;;;;;26.77;5.25;;;;;;;18.20;69.27;101239.63;4844337;28;119547;-71
2021/10/27 07:58:11;;;;;;;31.00;6.03;;;;;;;18.22;69.16;101245.50;4847213;28;121812;-70
2021/10/27 08:00:40;;;;;;;29.20;5.10;;;;;;;18.20;69.00;101251.50;4861834;28;120030;-70
2021/10/27 08:03:07;;;;;;;29.80;5.10;;;;;;;18.18;69.03;101244.91;4845150;28;119947;-71
2021/10/27 08:05:38;;;;;;;27.55;5.25;;;;;;;18.18;69.02;101256.03;4857155;28;119942;-71
2021/10/27 08:08:04;;;;;;;29.45;4.75;;;;;;;18.23;68.62;101249.78;4861397;28;119677;-71
2021/10/27 08:10:31;;;;;;;26.90;5.82;;;;;;;18.22;68.74;101254.59;4857978;28;120117;-70
2021/10/27 08:12:58;;;;;;;29.52;5.47;;;;;;;18.19;68.98;101252.75;4844188;28;120610;-70
2021/10/27 08:15:24;;;;;;;25.10;5.03;;;;;;;18.20;69.36;101259.84;4840403;28;120355;-70
2021/10/27 08:17:54;;;;;;;33.97;5.00;;;;;;;18.20;68.92;101256.31;4858020;28;120045;-70
2021/10/27 08:20:24;;;;;;;30.90;5.30;;;;;;;18.20;69.04;101254.28;4856831;28;122007;-71
2021/10/27 08:22:56;;;;;;;29.10;5.95;;;;;;;18.19;69.10;101263.09;4857231;28;119630;-70
2021/10/27 08:25:31;;;;;;;27.02;5.22;;;;;;;18.20;69.13;101259.84;4856363;28;120911;-70
2021/10/27 08:28:03;;;;;;;25.27;5.22;;;;;;;18.18;69.10;101245.69;4855655;28;119704;-71
2021/10/27 08:30:36;;;;;;;26.60;4.43;;;;;;;18.21;68.91;101247.47;4871452;28;120345;-71
2021/10/27 08:33:05;;;;;;;30.23;5.50;;;;;;;18.20;68.94;101251.50;4855435;28;120288;-69
2021/10/27 08:35:34;;;;;;;24.52;4.80;;;;;;;18.20;69.02;101247.97;4852879;28;119887;-69
2021/10/27 08:38:00;;;;;;;22.10;4.43;;;;;;;18.22;69.04;101251.03;4863472;28;119641;-72
2021/10/27 08:40:27;;;;;;;21.30;4.07;;;;;;;18.24;68.75;101257.63;4850591;28;121125;-70
2021/10/27 08:42:56;;;;;;;28.17;4.90;;;;;;;18.28;69.04;101258.19;4861683;28;120444;-69
2021/10/27 08:45:23;;;;;;;23.00;4.70;;;;;;;18.28;68.65;101258.19;4851881;28;120911;-69
2021/10/27 08:47:51;;;;;;;23.50;4.13;;;;;;;18.29;68.65;101264.50;4868850;28;119702;-70
2021/10/27 08:50:20;;;;;;;19.08;4.80;;;;;;;18.27;68.37;101278.88;4864496;28;119961;-70
2021/10/27 08:52:49;;;;;;;24.15;4.43;;;;;;;18.26;68.81;101271.78;4848134;28;119902;-70
2021/10/27 08:55:19;;;;;;;27.77;4.20;;;;;;;18.26;68.71;101268.25;4849631;28;120525;-69
2021/10/27 08:57:49;;;;;;;21.50;3.97;;;;;;;18.30;68.42;101277.88;4859175;28;124206;-69
2021/10/27 09:03:00;;;;;;;23.17;4.20;;;;;;;18.22;68.50;101289.91;4860604;28;119788;-70
2021/10/27 09:05:46;;;;;;;23.38;4.03;;;;;;;18.22;68.57;101287.16;4862433;28;121582;-69
2021/10/27 09:34:10;;;;;;;22.55;4.57;;;;;;;18.25;68.55;101270.25;4854698;28;119657;-69
2021/10/27 09:39:59;;;;;;;26.65;4.03;;;;;;;18.32;68.58;101269.81;4810185;28;120199;-70
2021/10/27 09:55:39;;;;;;;24.55;3.90;;;;;;;18.37;67.83;101263.56;4849735;28;119497;-70
2021/10/27 10:05:01;;;;;;;19.80;3.70;;;;;;;18.39;68.02;101299.94;4858760;28;120224;-70
2021/10/27 10:07:28;;;;;;;21.65;3.72;;;;;;;18.40;68.02;101297.91;4863060;28;120140;-70
2021/10/27 10:09:56;;;;;;;22.70;4.40;;;;;;;18.38;67.92;101300.41;4843361;28;119793;-70
2021/10/27 10:12:22;;;;;;;23.17;4.30;;;;;;;18.39;68.01;101299.94;4860097;28;120512;-70
2021/10/27 10:14:50;;;;;;;21.50;4.38;;;;;;;18.38;67.92;101301.19;4852769;28;120642;-72
2021/10/27 10:17:16;;;;;;;22.30;4.07;;;;;;;18.37;67.98;101310.78;4825725;28;120213;-70
2021/10/27 10:19:43;;;;;;;22.50;4.65;;;;;;;18.38;67.95;101305.97;4855799;28;120044;-70
2021/10/27 10:22:35;;;;;;;23.13;3.97;;;;;;;18.37;67.87;101302.44;4857114;28;120375;-69
2021/10/27 10:25:24;;;;;;;19.35;4.18;;;;;;;18.35;67.95;101299.38;4840497;28;119332;-69
2021/10/27 10:27:52;;;;;;;46.92;16.13;;;;;;;18.35;68.16;101302.16;4834989;28;122565;-71
2021/10/27 10:30:30;;;;;;;23.30;8.70;;;;;;;18.38;68.18;101294.88;4857682;28;119959;-71
2021/10/27 10:33:02;;;;;;;28.35;4.53;;;;;;;18.40;68.18;101298.69;4830265;28;120299;-69
2021/10/27 10:35:56;;;;;;;22.50;4.32;;;;;;;18.41;68.08;101293.88;4856924;28;120686;-69
2021/10/27 11:02:34;;;;;;;25.15;5.43;;;;;;;18.59;68.03;101329.69;4976453;28;120380;-69
2021/10/27 11:37:37;;;;;;;27.60;4.18;;;;;;;18.59;68.57;101346.34;4981347;27;121721;-69
2021/10/27 11:43:07;;;;;;;;;;;;;;;;;;;;;
2021/10/27 11:48:01;;;;;;;22.80;5.70;;;;;;;18.53;68.74;101333.66;4991581;28;120558;-69
2021/10/27 11:50:33;;;;;;;27.15;7.00;;;;;;;18.54;68.84;101343.53;4986232;28;119993;-69
2021/10/27 11:53:01;;;;;;;27.15;5.70;;;;;;;18.58;68.89;101352.41;4981389;28;120649;-69
2021/10/27 11:55:32;;;;;;;19.33;4.80;;;;;;;18.56;68.97;101349.34;4981679;28;120067;-69
2021/10/27 11:57:58;;;;;;;23.05;5.15;;;;;;;18.52;69.03;101337.69;4971317;28;119747;-69
2021/10/27 12:00:46;;;;;;;23.20;4.93;;;;;;;18.53;69.07;101350.34;4972122;28;119964;-70
2021/10/27 12:05:46;;;;;;;25.52;5.47;;;;;;;18.48;68.98;101337.91;4976891;28;120147;-70
2021/10/27 12:19:06;;;;;;;17.80;4.45;;;;;;;18.53;69.03;101333.66;4965209;28;121663;-70
2021/10/27 12:21:34;;;;;;;20.30;5.38;;;;;;;18.53;68.72;101336.44;4975809;28;120358;-70
2021/10/27 12:24:02;;;;;;;22.42;4.95;;;;;;;18.53;68.81;101345.53;4975767;28;120021;-70
2021/10/27 12:26:40;;;;;;;21.77;5.03;;;;;;;18.53;68.79;101328.09;4954147;28;120694;-70
2021/10/27 12:29:14;;;;;;;26.88;5.80;;;;;;;18.50;68.70;101324.28;4973521;28;119868;-70
2021/10/27 12:31:41;;;;;;;22.35;5.55;;;;;;;18.50;68.74;101326.31;4969900;28;120317;-69
2021/10/27 12:34:28;;;;;;;24.50;5.80;;;;;;;18.48;68.41;101320.47;4955725;28;120444;-70
2021/10/27 12:36:59;;;;;;;25.50;5.47;;;;;;;18.49;68.48;101311.66;4955891;28;120514;-69
2021/10/27 12:39:44;;;;;;;25.13;6.00;;;;;;;18.51;68.48;101320.25;4967886;28;120196;-69
2021/10/27 12:42:12;;;;;;;26.15;6.00;;;;;;;18.53;68.39;101319.78;4979820;28;121785;-69
2021/10/27 12:44:46;;;;;;;26.40;5.70;;;;;;;18.50;68.20;101318.75;4974676;28;121339;-69
2021/10/27 12:47:21;;;;;;;26.35;5.95;;;;;;;18.51;68.31;101325.06;4975890;28;120087;-69
2021/10/27 12:49:49;;;;;;;22.20;5.70;;;;;;;18.50;68.45;101312.41;4968606;28;119657;-70
2021/10/27 12:52:30;;;;;;;26.65;6.40;;;;;;;18.49;68.45;101316.44;4980482;28;120030;-69
2021/10/27 12:55:27;;;;;;;19.33;5.50;;;;;;;18.47;68.36;101313.41;4970875;28;120405;-69
2021/10/27 12:57:53;;;;;;;21.25;5.68;;;;;;;18.46;68.32;101306.31;4968776;28;120913;-71
2021/10/27 13:00:46;;;;;;;20.42;5.20;;;;;;;18.40;68.51;101301.47;4957422;28;120494;-71
2021/10/27 13:08:53;;;;;;;29.02;6.13;;;;;;;18.41;68.39;101299.44;4977323;28;120098;-71
2021/10/27 13:32:04;;;;;;;20.08;5.18;;;;;;;18.47;67.89;101299.50;4969460;28;120160;-72
2021/10/27 13:34:29;;;;;;;25.40;5.45;;;;;;;18.46;67.72;101306.31;4971118;28;120434;-71
2021/10/27 13:36:55;;;;;;;20.83;4.80;;;;;;;18.47;67.80;101307.84;4969270;28;120247;-71
2021/10/27 13:39:22;;;;;;;16.48;4.65;;;;;;;18.46;67.91;101303.53;4967065;28;119910;-71
2021/10/27 13:41:55;;;;;;;19.08;4.65;;;;;;;18.47;67.49;101307.84;4971418;28;119648;-71
2021/10/27 13:44:24;;;;;;;27.55;6.03;;;;;;;18.46;67.40;101317.44;4971089;28;120567;-71
2021/10/27 13:47:00;;;;;;;25.75;5.47;;;;;;;18.50;67.65;101304.09;4959708;28;119845;-71
2021/10/27 13:57:51;;;;;;;19.88;5.30;;;;;;;18.41;67.83;101300.19;4972102;28;119938;-71
2021/10/27 14:08:33;;;;;;;23.95;8.27;;;;;;;18.37;67.62;101302.44;4970619;28;120330;-71
2021/10/27 14:11:20;;;;;;;15.07;5.35;;;;;;;18.40;68.09;101309.03;4972597;28;121500;-71
2021/10/27 14:16:50;;;;;;;24.63;5.53;;;;;;;18.43;67.70;101308.03;4967909;28;121392;-69
2021/10/27 14:22:22;;;;;;;22.23;5.15;;;;;;;18.40;67.68;101295.91;4950875;28;120596;-69
2021/10/27 15:19:50;;;;;;;18.02;4.43;;;;;;;18.26;67.76;101319.00;4972325;28;119912;-69
2021/10/27 15:35:38;;;;;;;19.23;4.75;;;;;;;18.33;67.30;101329.66;4982998;28;119966;-69
2021/10/27 15:41:14;;;;;;;;;;;;;;;18.29;67.29;101340.22;4975879;28;120287;-69
2021/10/27 15:51:56;;;;;;;19.60;4.63;;;;;;;18.23;67.22;101347.75;4975050;28;120091;-69
2021/10/27 15:54:22;;;;;;;20.02;4.22;;;;;;;18.24;67.46;101351.28;4962611;28;120876;-69
2021/10/27 15:56:48;;;;;;;18.58;4.47;;;;;;;18.27;67.47;101350.31;4977645;28;120267;-70
2021/10/27 15:59:13;;;;;;;22.83;4.45;;;;;;;18.27;67.27;101344.75;4976483;28;120024;-69
2021/10/27 16:01:39;;;;;;;26.02;5.28;;;;;;;18.27;67.33;101348.28;4990414;28;120004;-69